createdAt,value
2023-03-10T00:01:33.416Z,23.15
2023-03-10T00:04:03.025Z,20.55
2023-03-10T00:06:34.960Z,18.80
2023-03-10T00:09:03.083Z,14.07
2023-03-10T00:11:30.614Z,15.40
2023-03-10T00:13:57.773Z,15.07
2023-03-10T00:16:29.192Z,14.60
2023-03-10T00:18:57.850Z,8.65
2023-03-10T00:21:30.565Z,6.25
2023-03-10T00:24:01.964Z,4.80
2023-03-10T00:26:31.181Z,5.22
2023-03-10T00:28:58.355Z,6.03
2023-03-10T00:31:28.630Z,10.18
2023-03-10T00:33:57.105Z,10.13
2023-03-10T00:36:28.097Z,7.40
2023-03-10T00:39:01.030Z,10.80
2023-03-10T00:41:31.816Z,11.80
2023-03-10T00:44:01.058Z,15.55
2023-03-10T00:46:30.549Z,17.20
2023-03-10T00:48:57.776Z,23.90
2023-03-10T00:51:25.412Z,18.55
2023-03-10T00:53:52.776Z,15.82
2023-03-10T00:56:23.978Z,29.33
2023-03-10T00:58:57.866Z,28.83
2023-03-10T01:03:57.899Z,19.60
2023-03-10T01:06:26.371Z,21.13
2023-03-10T01:08:54.121Z,19.33
2023-03-10T01:11:27.137Z,28.92
2023-03-10T01:13:58.250Z,18.35
2023-03-10T01:16:26.728Z,23.55
2023-03-10T01:18:54.007Z,24.58
2023-03-10T01:21:33.673Z,22.75
2023-03-10T01:24:02.155Z,20.73
2023-03-10T01:26:30.564Z,26.48
2023-03-10T01:28:57.937Z,29.95
2023-03-10T01:31:25.332Z,21.58
2023-03-10T01:36:26.271Z,33.55
2023-03-10T01:41:23.531Z,21.63
2023-03-10T01:43:57.143Z,25.85
2023-03-10T01:46:55.150Z,22.70
2023-03-10T01:49:38.216Z,35.58
2023-03-10T01:52:21.803Z,27.85
2023-03-10T01:55:09.887Z,23.50
2023-03-10T01:57:50.507Z,39.22
2023-03-10T02:00:21.252Z,37.08
2023-03-10T02:02:54.716Z,43.25
2023-03-10T02:05:22.861Z,37.95
2023-03-10T02:07:52.185Z,34.90
2023-03-10T02:10:20.397Z,31.88
2023-03-10T02:12:47.741Z,28.02
2023-03-10T02:15:15.149Z,35.50
2023-03-10T02:17:44.947Z,33.22
2023-03-10T02:20:42.325Z,30.55
2023-03-10T02:23:16.708Z,55.90
2023-03-10T02:25:54.293Z,29.05
2023-03-10T02:28:21.736Z,32.05
2023-03-10T02:33:29.537Z,52.53
2023-03-10T02:36:17.662Z,24.98
2023-03-10T02:38:44.874Z,53.47
2023-03-10T02:41:39.720Z,90.70
2023-03-10T02:44:12.164Z,28.67
2023-03-10T02:46:40.347Z,28.58
2023-03-10T02:49:12.714Z,30.33
2023-03-10T02:51:46.823Z,29.98
2023-03-10T02:54:15.701Z,28.98
2023-03-10T02:56:45.707Z,17.60
2023-03-10T02:59:13.319Z,20.35
2023-03-10T03:01:40.927Z,19.23
2023-03-10T03:04:08.516Z,27.35
2023-03-10T03:06:36.084Z,19.23
2023-03-10T03:09:04.361Z,18.63
2023-03-10T03:11:34.571Z,21.45
2023-03-10T03:14:01.861Z,24.42
2023-03-10T03:16:29.042Z,22.35
2023-03-10T03:18:56.484Z,24.58
2023-03-10T03:21:24.421Z,25.92
2023-03-10T03:23:53.264Z,20.70
2023-03-10T03:26:25.419Z,24.98
2023-03-10T03:28:53.553Z,27.65
2023-03-10T03:31:26.152Z,27.23
2023-03-10T03:33:54.409Z,16.20
2023-03-10T03:36:21.551Z,22.88
2023-03-10T03:38:48.855Z,18.30
2023-03-10T03:41:16.310Z,26.33
2023-03-10T03:46:11.407Z,25.45
2023-03-10T03:48:38.817Z,26.63
2023-03-10T03:53:36.167Z,19.40
2023-03-10T03:56:03.726Z,23.05
2023-03-10T03:58:31.165Z,28.67
2023-03-10T04:03:26.787Z,27.50
2023-03-10T04:05:54.152Z,23.77
2023-03-10T04:08:21.410Z,14.82
2023-03-10T04:10:55.287Z,26.83
2023-03-10T04:13:25.466Z,22.27
2023-03-10T04:16:00.567Z,23.80
2023-03-10T04:18:28.482Z,25.92
2023-03-10T04:20:56.371Z,19.67
2023-03-10T04:23:24.126Z,27.00
2023-03-10T04:25:51.414Z,19.13
2023-03-10T04:28:20.307Z,23.10
2023-03-10T04:30:47.875Z,27.33
2023-03-10T04:33:15.104Z,26.30
2023-03-10T04:35:44.683Z,20.50
2023-03-10T04:38:13.639Z,28.55
2023-03-10T04:40:40.798Z,19.70
2023-03-10T04:43:09.268Z,21.38
2023-03-10T04:45:38.052Z,20.23
2023-03-10T04:48:06.464Z,17.98
2023-03-10T04:50:34.586Z,19.83
2023-03-10T04:53:01.782Z,28.88
2023-03-10T04:55:29.183Z,21.80
2023-03-10T04:57:56.751Z,32.65
2023-03-10T05:00:24.392Z,26.10
2023-03-10T05:02:51.658Z,27.48
2023-03-10T05:05:18.932Z,25.92
2023-03-10T05:07:47.081Z,32.53
2023-03-10T05:10:14.443Z,29.65
2023-03-10T05:12:42.482Z,29.95
2023-03-10T05:15:11.431Z,33.83
2023-03-10T05:17:38.782Z,25.45
2023-03-10T05:20:10.544Z,25.45
2023-03-10T05:22:39.172Z,26.95
2023-03-10T05:25:08.280Z,23.73
2023-03-10T05:27:37.371Z,31.38
2023-03-10T05:30:08.271Z,37.90
2023-03-10T05:32:37.859Z,27.20
2023-03-10T05:35:05.768Z,31.75
2023-03-10T05:37:39.573Z,22.65
2023-03-10T05:42:42.488Z,34.77
2023-03-10T05:45:12.572Z,29.75
2023-03-10T05:47:40.213Z,33.13
2023-03-10T05:50:11.088Z,21.60
2023-03-10T05:52:44.308Z,17.00
2023-03-10T05:55:18.263Z,21.60
2023-03-10T05:57:46.284Z,20.50
2023-03-10T06:00:17.085Z,26.85
2023-03-10T06:02:44.425Z,25.15
2023-03-10T06:05:13.726Z,24.42
2023-03-10T06:07:42.051Z,28.27
2023-03-10T06:10:10.535Z,18.77
2023-03-10T06:12:38.210Z,21.67
2023-03-10T06:15:06.503Z,25.33
2023-03-10T06:17:33.776Z,21.73
2023-03-10T06:20:02.082Z,22.60
2023-03-10T06:22:31.268Z,24.25
2023-03-10T06:24:58.912Z,25.58
2023-03-10T06:29:53.744Z,33.42
2023-03-10T06:34:48.580Z,27.23
2023-03-10T06:37:15.886Z,19.98
2023-03-10T06:39:43.452Z,23.23
2023-03-10T06:42:10.666Z,27.23
2023-03-10T06:44:38.051Z,30.85
2023-03-10T06:49:33.925Z,21.50
2023-03-10T06:52:01.607Z,25.27
2023-03-10T06:54:28.847Z,20.85
2023-03-10T06:56:56.116Z,21.63
2023-03-10T06:59:23.846Z,21.77
2023-03-10T07:01:55.047Z,20.33
2023-03-10T07:04:23.598Z,15.15
2023-03-10T07:06:53.723Z,18.63
2023-03-10T07:09:23.798Z,20.92
2023-03-10T07:11:55.126Z,21.60
2023-03-10T07:14:27.217Z,23.08
2023-03-10T07:17:07.811Z,28.83
2023-03-10T07:19:40.696Z,20.23
2023-03-10T07:22:12.355Z,18.80
2023-03-10T07:24:46.140Z,26.02
2023-03-10T07:27:17.173Z,20.48
2023-03-10T07:29:50.699Z,20.83
2023-03-10T07:32:18.866Z,18.25
2023-03-10T07:34:53.989Z,20.20
2023-03-10T07:37:24.829Z,18.35
2023-03-10T07:39:56.690Z,21.58
2023-03-10T07:42:31.245Z,20.63
2023-03-10T07:44:59.733Z,15.77
2023-03-10T07:47:27.024Z,15.18
2023-03-10T07:49:55.195Z,14.30
2023-03-10T07:52:23.151Z,18.27
2023-03-10T07:54:55.265Z,14.23
2023-03-10T07:57:33.860Z,20.10
2023-03-10T08:00:01.189Z,14.38
2023-03-10T08:02:28.383Z,17.65
2023-03-10T08:04:55.650Z,19.52
2023-03-10T08:07:23.070Z,22.43
2023-03-10T08:09:54.676Z,19.15
2023-03-10T08:12:22.579Z,17.23
2023-03-10T08:14:51.269Z,20.13
2023-03-10T08:17:18.525Z,16.13
2023-03-10T08:19:45.966Z,11.85
2023-03-10T08:22:13.433Z,13.13
2023-03-10T08:24:40.597Z,13.80
2023-03-10T08:27:07.842Z,15.70
2023-03-10T08:29:35.342Z,15.65
2023-03-10T08:34:34.557Z,17.98
2023-03-10T08:37:02.158Z,19.92
2023-03-10T08:39:29.956Z,21.10
2023-03-10T08:41:57.171Z,18.05
2023-03-10T08:44:26.865Z,23.23
2023-03-10T08:46:55.195Z,19.95
2023-03-10T08:49:23.074Z,20.27
2023-03-10T08:51:50.446Z,17.00
2023-03-10T08:54:20.943Z,20.35
2023-03-10T08:56:49.031Z,23.75
2023-03-10T08:59:16.293Z,19.60
2023-03-10T09:01:43.521Z,16.10
2023-03-10T09:04:11.142Z,16.55
2023-03-10T09:06:39.195Z,14.60
2023-03-10T09:09:10.451Z,22.65
2023-03-10T09:11:40.204Z,20.42
2023-03-10T09:14:08.570Z,13.35
2023-03-10T09:16:35.925Z,19.88
2023-03-10T09:19:04.145Z,18.17
2023-03-10T09:21:33.756Z,22.98
2023-03-10T09:24:02.508Z,20.45
2023-03-10T09:26:30.496Z,22.88
2023-03-10T09:28:57.806Z,26.88
2023-03-10T09:31:36.231Z,25.90
2023-03-10T09:34:04.123Z,29.77
2023-03-10T09:36:32.965Z,21.52
2023-03-10T09:39:01.354Z,30.05
2023-03-10T09:42:01.480Z,24.50
2023-03-10T09:44:58.104Z,24.23
2023-03-10T09:47:46.558Z,24.95
2023-03-10T09:50:26.162Z,25.70
2023-03-10T09:53:30.700Z,28.33
2023-03-10T09:55:58.456Z,30.42
2023-03-10T09:58:39.874Z,24.25
2023-03-10T10:01:18.171Z,22.25
2023-03-10T10:04:10.890Z,33.60
2023-03-10T10:06:43.164Z,28.83
2023-03-10T10:09:35.412Z,27.27
2023-03-10T10:12:32.161Z,31.92
2023-03-10T10:15:14.281Z,22.95
2023-03-10T10:18:02.872Z,19.65
2023-03-10T10:20:59.176Z,15.00
2023-03-10T10:23:49.114Z,15.65
2023-03-10T10:26:22.518Z,19.70
2023-03-10T10:29:14.024Z,20.65
2023-03-10T10:31:41.187Z,15.23
2023-03-10T10:34:23.039Z,20.00
2023-03-10T10:36:57.470Z,15.75
2023-03-10T10:39:43.681Z,14.13
2023-03-10T10:42:27.094Z,20.85
2023-03-10T10:44:59.642Z,12.90
2023-03-10T10:47:31.542Z,18.35
2023-03-10T10:50:29.223Z,14.13
2023-03-10T10:53:20.727Z,10.00
2023-03-10T10:56:14.408Z,9.23
2023-03-10T10:58:45.986Z,7.82
2023-03-10T11:01:17.279Z,9.57
2023-03-10T11:03:49.090Z,8.27
2023-03-10T11:06:22.220Z,10.93
2023-03-10T11:08:53.154Z,10.60
2023-03-10T11:11:33.905Z,9.38
2023-03-10T11:14:40.487Z,10.25
2023-03-10T11:17:29.908Z,10.48
2023-03-10T11:20:25.162Z,10.77
2023-03-10T11:23:34.116Z,12.60
2023-03-10T11:26:17.700Z,10.02
2023-03-10T11:29:21.360Z,11.20
2023-03-10T11:32:38.812Z,9.52
2023-03-10T11:35:31.837Z,7.90
2023-03-10T11:38:39.426Z,10.38
2023-03-10T11:41:27.068Z,10.95
2023-03-10T11:44:14.354Z,7.90
2023-03-10T11:47:28.178Z,10.30
2023-03-10T11:50:17.149Z,11.15
2023-03-10T11:52:47.021Z,12.27
2023-03-10T11:55:22.158Z,9.55
2023-03-10T11:57:59.433Z,10.85
2023-03-10T12:00:38.428Z,13.90
2023-03-10T12:03:55.944Z,11.25
2023-03-10T12:06:39.125Z,18.00
2023-03-10T12:09:15.850Z,12.98
2023-03-10T12:11:43.463Z,11.15
2023-03-10T12:14:14.762Z,12.63
2023-03-10T12:16:43.828Z,12.02
2023-03-10T12:19:11.099Z,12.32
2023-03-10T12:24:06.540Z,13.95
2023-03-10T12:27:01.506Z,10.63
2023-03-10T12:29:39.776Z,12.50
2023-03-10T12:32:47.500Z,11.45
2023-03-10T12:35:48.196Z,8.88
2023-03-10T12:38:59.912Z,9.13
2023-03-10T12:41:27.068Z,9.73
2023-03-10T12:44:38.076Z,8.45
2023-03-10T12:47:30.847Z,17.23
2023-03-10T12:52:41.568Z,8.57
2023-03-10T12:55:26.216Z,6.10
2023-03-10T12:57:56.140Z,13.35
2023-03-10T13:00:42.528Z,13.50
2023-03-10T13:06:18.915Z,22.23
2023-03-10T13:09:10.165Z,16.50
2023-03-10T13:11:44.246Z,14.27
2023-03-10T13:14:17.151Z,19.60
2023-03-10T13:17:01.123Z,25.13
2023-03-10T13:19:35.268Z,18.98
2023-03-10T13:22:05.006Z,20.10
2023-03-10T13:24:37.472Z,14.85
2023-03-10T13:27:06.064Z,14.77
2023-03-10T13:29:34.227Z,14.75
2023-03-10T13:32:01.818Z,18.60
2023-03-10T13:34:32.776Z,22.40
2023-03-10T13:37:06.996Z,21.15
2023-03-10T13:39:34.389Z,13.15
2023-03-10T13:42:11.537Z,18.50
2023-03-10T13:44:42.440Z,16.73
2023-03-10T13:47:23.786Z,11.00
2023-03-10T13:50:00.137Z,11.05
2023-03-10T13:52:31.160Z,13.40
2023-03-10T13:55:16.399Z,19.30
2023-03-10T13:57:46.317Z,16.13
2023-03-10T14:00:22.193Z,12.80
2023-03-10T14:02:52.302Z,14.95
2023-03-10T14:05:41.111Z,15.93
2023-03-10T14:08:32.951Z,13.50
2023-03-10T14:11:32.906Z,12.15
2023-03-10T14:14:02.361Z,10.43
2023-03-10T14:16:54.555Z,9.35
2023-03-10T14:19:48.816Z,10.43
2023-03-10T14:22:35.446Z,16.38
2023-03-10T14:25:13.122Z,21.33
2023-03-10T14:27:44.721Z,5.47
2023-03-10T14:30:34.063Z,9.00
2023-03-10T14:33:02.275Z,10.35
2023-03-10T14:35:30.180Z,16.98
2023-03-10T14:37:57.589Z,14.63
2023-03-10T14:42:56.185Z,11.77
2023-03-10T14:45:31.955Z,14.65
2023-03-10T14:48:02.817Z,16.42
2023-03-10T14:50:31.110Z,10.10
2023-03-10T14:52:58.391Z,13.55
2023-03-10T14:55:25.703Z,16.63
2023-03-10T14:58:00.419Z,4.25
2023-03-10T15:00:28.173Z,6.45
2023-03-10T15:02:55.487Z,6.15
2023-03-10T15:05:45.178Z,11.43
2023-03-10T15:08:15.660Z,9.63
2023-03-10T15:10:48.750Z,7.30
2023-03-10T15:13:19.990Z,5.63
2023-03-10T15:15:48.573Z,12.93
2023-03-10T15:18:20.025Z,7.20
2023-03-10T15:20:47.854Z,5.32
2023-03-10T15:23:18.851Z,5.88
2023-03-10T15:25:46.874Z,4.57
2023-03-10T15:28:14.443Z,9.38
2023-03-10T15:30:42.331Z,6.85
2023-03-10T15:33:10.928Z,6.53
2023-03-10T15:35:39.218Z,3.00
2023-03-10T15:38:07.173Z,7.18
2023-03-10T15:40:36.136Z,4.82
2023-03-10T15:43:03.485Z,7.15
2023-03-10T15:47:59.898Z,6.03
2023-03-10T15:50:27.970Z,5.97
2023-03-10T15:52:58.007Z,6.57
2023-03-10T15:55:27.178Z,4.20
2023-03-10T15:57:56.209Z,4.57
2023-03-10T16:00:25.976Z,7.50
2023-03-10T16:02:54.926Z,6.20
2023-03-10T16:05:22.860Z,6.85
2023-03-10T16:07:50.847Z,5.50
2023-03-10T16:10:20.985Z,6.43
2023-03-10T16:12:48.355Z,6.65
2023-03-10T16:15:18.257Z,7.13
2023-03-10T16:17:45.959Z,6.97
2023-03-10T16:20:14.564Z,9.50
2023-03-10T16:22:43.251Z,6.88
2023-03-10T16:25:19.597Z,6.25
2023-03-10T16:27:48.611Z,5.07
2023-03-10T16:30:18.424Z,6.15
2023-03-10T16:32:50.416Z,5.68
2023-03-10T16:35:19.296Z,8.45
2023-03-10T16:37:46.541Z,7.22
2023-03-10T16:42:45.706Z,8.60
2023-03-10T16:45:13.664Z,5.28
2023-03-10T16:47:41.275Z,8.48
2023-03-10T16:50:12.813Z,4.93
2023-03-10T16:52:42.691Z,8.52
2023-03-10T16:55:17.419Z,4.22
2023-03-10T16:57:46.093Z,9.43
2023-03-10T17:00:14.516Z,7.07
2023-03-10T17:02:41.659Z,10.38
2023-03-10T17:05:10.280Z,4.03
2023-03-10T17:07:53.321Z,7.82
2023-03-10T17:10:23.864Z,9.63
2023-03-10T17:12:52.296Z,5.03
2023-03-10T17:15:20.594Z,6.75
2023-03-10T17:17:47.760Z,9.70
2023-03-10T17:20:15.638Z,6.93
2023-03-10T17:22:42.845Z,7.63
2023-03-10T17:25:13.668Z,8.88
2023-03-10T17:27:42.480Z,8.95
2023-03-10T17:30:12.042Z,9.13
2023-03-10T17:32:39.179Z,7.28
2023-03-10T17:37:33.821Z,8.70
2023-03-10T17:40:02.284Z,8.15
2023-03-10T17:42:30.773Z,11.00
2023-03-10T17:44:57.930Z,15.82
2023-03-10T17:47:25.168Z,13.30
2023-03-10T17:49:55.489Z,10.43
2023-03-10T17:52:22.636Z,5.85
2023-03-10T17:54:51.049Z,7.93
2023-03-10T17:57:18.196Z,15.48
2023-03-10T17:59:45.444Z,12.80
2023-03-10T18:02:13.311Z,12.85
2023-03-10T18:04:45.365Z,10.82
2023-03-10T18:07:13.697Z,9.68
2023-03-10T18:09:40.915Z,12.90
2023-03-10T18:12:09.621Z,10.95
2023-03-10T18:14:36.856Z,14.23
2023-03-10T18:17:04.116Z,11.32
2023-03-10T18:19:31.667Z,16.58
2023-03-10T18:21:59.964Z,15.88
2023-03-10T18:24:27.254Z,15.90
2023-03-10T18:26:56.201Z,16.70
2023-03-10T18:29:23.790Z,16.17
2023-03-10T18:31:51.061Z,14.80
2023-03-10T18:34:19.575Z,18.70
2023-03-10T18:36:46.978Z,15.63
2023-03-10T18:39:15.576Z,16.20
2023-03-10T18:41:42.782Z,11.98
2023-03-10T18:44:09.966Z,11.77
2023-03-10T18:46:37.392Z,11.15
2023-03-10T18:51:32.263Z,16.85
2023-03-10T18:53:59.532Z,13.73
2023-03-10T18:56:29.212Z,13.73
2023-03-10T18:58:58.171Z,13.90
2023-03-10T19:01:50.297Z,18.75
2023-03-10T19:04:24.813Z,17.00
2023-03-10T19:06:52.968Z,10.23
2023-03-10T19:09:22.664Z,11.10
2023-03-10T19:11:52.439Z,12.60
2023-03-10T19:14:22.570Z,11.80
2023-03-10T19:16:52.850Z,11.73
2023-03-10T19:19:20.734Z,12.50
2023-03-10T19:21:54.191Z,12.02
2023-03-10T19:24:22.968Z,15.40
2023-03-10T19:26:51.309Z,23.70
2023-03-10T19:29:23.176Z,17.35
2023-03-10T19:31:53.836Z,15.88
2023-03-10T19:34:24.215Z,16.25
2023-03-10T19:36:53.952Z,15.65
2023-03-10T19:39:24.229Z,17.85
2023-03-10T19:41:51.623Z,12.68
2023-03-10T19:44:18.773Z,16.85
2023-03-10T19:46:45.960Z,19.20
2023-03-10T19:49:13.209Z,20.23
2023-03-10T19:51:40.396Z,15.27
2023-03-10T19:54:07.776Z,14.43
2023-03-10T19:56:35.138Z,18.60
2023-03-10T19:59:02.834Z,10.80
2023-03-10T20:01:30.381Z,13.77
2023-03-10T20:06:28.666Z,11.80
2023-03-10T20:08:57.469Z,12.10
2023-03-10T20:11:24.759Z,16.33
2023-03-10T20:13:54.226Z,10.80
2023-03-10T20:16:24.313Z,11.95
2023-03-10T20:18:51.692Z,12.82
2023-03-10T20:21:18.890Z,12.40
2023-03-10T20:23:47.928Z,14.18
2023-03-10T20:26:16.490Z,10.63
2023-03-10T20:28:45.092Z,27.95
2023-03-10T20:31:22.865Z,16.13
2023-03-10T20:33:50.750Z,16.17
2023-03-10T20:36:18.556Z,12.80
2023-03-10T20:38:47.443Z,15.50
2023-03-10T20:41:17.892Z,16.70
2023-03-10T20:43:45.563Z,16.05
2023-03-10T20:46:13.697Z,18.83
2023-03-10T20:48:41.113Z,19.20
2023-03-10T20:53:37.436Z,17.40
2023-03-10T20:56:10.233Z,17.98
2023-03-10T20:58:38.243Z,18.63
2023-03-10T21:01:05.610Z,15.68
2023-03-10T21:03:33.105Z,16.65
2023-03-10T21:08:27.318Z,13.50
2023-03-10T21:10:54.411Z,14.10
2023-03-10T21:13:21.705Z,19.40
2023-03-10T21:15:48.925Z,13.52
2023-03-10T21:18:16.064Z,11.77
2023-03-10T21:20:43.209Z,10.30
2023-03-10T21:23:10.395Z,13.02
2023-03-10T21:25:37.665Z,8.40
2023-03-10T21:28:04.788Z,11.85
2023-03-10T21:30:33.763Z,14.20
2023-03-10T21:33:01.045Z,33.05
2023-03-10T21:35:32.030Z,8.98
2023-03-10T21:37:59.516Z,12.07
2023-03-10T21:42:56.253Z,15.77
2023-03-10T21:45:24.739Z,9.25
2023-03-10T21:47:52.256Z,19.35
2023-03-10T21:52:48.315Z,19.20
2023-03-10T21:55:23.206Z,12.05
2023-03-10T21:57:51.630Z,10.05
2023-03-10T22:00:23.213Z,14.27
2023-03-10T22:02:53.233Z,17.52
2023-03-10T22:05:21.271Z,13.18
2023-03-10T22:07:49.227Z,15.02
2023-03-10T22:10:18.548Z,12.95
2023-03-10T22:12:46.063Z,12.45
2023-03-10T22:17:46.971Z,9.32
2023-03-10T22:20:18.741Z,16.08
2023-03-10T22:22:46.281Z,11.82
2023-03-10T22:27:43.893Z,12.88
2023-03-10T22:30:14.141Z,15.75
2023-03-10T22:32:42.144Z,20.98
2023-03-10T22:35:10.223Z,33.75
2023-03-10T22:37:39.060Z,16.77
2023-03-10T22:40:10.342Z,8.70
2023-03-10T22:42:39.361Z,20.92
2023-03-10T22:45:17.940Z,11.10
2023-03-10T22:47:46.125Z,14.75
2023-03-10T22:50:26.286Z,9.55
2023-03-10T22:55:25.863Z,13.23
2023-03-10T22:57:53.804Z,17.58
2023-03-10T23:00:22.800Z,14.38
2023-03-10T23:02:52.430Z,10.10
2023-03-10T23:05:21.682Z,9.77
2023-03-10T23:07:49.841Z,9.18
2023-03-10T23:10:25.151Z,5.35
2023-03-10T23:12:54.081Z,16.83
2023-03-10T23:15:29.670Z,8.68
2023-03-10T23:17:57.636Z,10.27
2023-03-10T23:20:29.151Z,8.85
2023-03-10T23:22:59.355Z,11.85
2023-03-10T23:25:42.914Z,10.27
2023-03-10T23:28:11.651Z,14.63
2023-03-10T23:30:42.055Z,10.65
2023-03-10T23:33:14.170Z,13.80
2023-03-10T23:35:41.690Z,12.63
2023-03-10T23:38:10.135Z,10.98
2023-03-10T23:40:46.306Z,16.24
2023-03-10T23:43:14.449Z,12.38
2023-03-10T23:45:41.979Z,8.30
2023-03-10T23:48:16.237Z,14.60
2023-03-10T23:50:45.995Z,11.55
2023-03-10T23:53:16.352Z,13.52
2023-03-10T23:55:46.946Z,9.52
2023-03-10T23:58:16.849Z,10.00
